sensor_id;sensor_type;location;lat;lon;timestamp;pressure;altitude;pressure_sealevel;temperature;humidity
58662;BME280;44432;49.786;22.760;2023-02-28T00:00:39;100637.91;;;-3.81;78.92
58662;BME280;44432;49.786;22.760;2023-02-28T00:03:19;100640.03;;;-3.82;78.93
58662;BME280;44432;49.786;22.760;2023-02-28T00:05:50;100642.50;;;-3.83;79.00
58662;BME280;44432;49.786;22.760;2023-02-28T00:08:20;100643.21;;;-3.84;78.97
58662;BME280;44432;49.786;22.760;2023-02-28T00:10:51;100644.61;;;-3.84;79.06
58662;BME280;44432;49.786;22.760;2023-02-28T00:13:22;100646.87;;;-3.85;79.06
58662;BME280;44432;49.786;22.760;2023-02-28T00:16:01;100657.16;;;-3.84;79.16
58662;BME280;44432;49.786;22.760;2023-02-28T00:18:32;100654.41;;;-3.84;79.14
58662;BME280;44432;49.786;22.760;2023-02-28T00:21:03;100653.73;;;-3.84;79.06
58662;BME280;44432;49.786;22.760;2023-02-28T00:23:35;100650.04;;;-3.83;79.19
58662;BME280;44432;49.786;22.760;2023-02-28T00:26:06;100647.25;;;-3.82;79.23
58662;BME280;44432;49.786;22.760;2023-02-28T00:28:37;100653.56;;;-3.82;79.28
58662;BME280;44432;49.786;22.760;2023-02-28T00:31:08;100653.05;;;-3.81;79.52
58662;BME280;44432;49.786;22.760;2023-02-28T00:33:38;100655.97;;;-3.81;79.26
58662;BME280;44432;49.786;22.760;2023-02-28T00:36:10;100653.27;;;-3.83;79.31
58662;BME280;44432;49.786;22.760;2023-02-28T00:38:42;100652.27;;;-3.83;79.29
58662;BME280;44432;49.786;22.760;2023-02-28T00:41:13;100654.02;;;-3.83;79.36
58662;BME280;44432;49.786;22.760;2023-02-28T00:43:43;100655.40;;;-3.83;79.56
58662;BME280;44432;49.786;22.760;2023-02-28T00:46:14;100654.05;;;-3.84;79.34
58662;BME280;44432;49.786;22.760;2023-02-28T00:48:45;100655.80;;;-3.84;79.42
58662;BME280;44432;49.786;22.760;2023-02-28T00:51:15;100651.55;;;-3.85;79.44
58662;BME280;44432;49.786;22.760;2023-02-28T00:53:46;100654.98;;;-3.85;79.70
58662;BME280;44432;49.786;22.760;2023-02-28T00:56:17;100650.02;;;-3.86;79.48
58662;BME280;44432;49.786;22.760;2023-02-28T00:58:47;100659.70;;;-3.86;79.68
58662;BME280;44432;49.786;22.760;2023-02-28T01:01:18;100658.75;;;-3.88;79.54
58662;BME280;44432;49.786;22.760;2023-02-28T01:03:48;100656.12;;;-3.90;79.60
58662;BME280;44432;49.786;22.760;2023-02-28T01:06:19;100656.93;;;-3.92;79.77
58662;BME280;44432;49.786;22.760;2023-02-28T01:08:50;100658.99;;;-3.92;79.73
58662;BME280;44432;49.786;22.760;2023-02-28T01:11:20;100658.21;;;-3.94;79.63
58662;BME280;44432;49.786;22.760;2023-02-28T01:13:51;100659.81;;;-3.95;79.70
58662;BME280;44432;49.786;22.760;2023-02-28T01:16:22;100659.05;;;-3.97;79.61
58662;BME280;44432;49.786;22.760;2023-02-28T01:18:53;100661.00;;;-3.97;79.68
58662;BME280;44432;49.786;22.760;2023-02-28T01:21:24;100659.01;;;-3.99;79.71
58662;BME280;44432;49.786;22.760;2023-02-28T01:23:57;100659.08;;;-4.00;79.82
58662;BME280;44432;49.786;22.760;2023-02-28T01:26:28;100658.13;;;-4.01;79.85
58662;BME280;44432;49.786;22.760;2023-02-28T01:28:59;100661.13;;;-4.03;79.96
58662;BME280;44432;49.786;22.760;2023-02-28T01:31:30;100661.33;;;-4.06;80.00
58662;BME280;44432;49.786;22.760;2023-02-28T01:34:01;100665.46;;;-4.06;79.91
58662;BME280;44432;49.786;22.760;2023-02-28T01:36:31;100669.61;;;-4.10;79.96
58662;BME280;44432;49.786;22.760;2023-02-28T01:39:02;100670.77;;;-4.12;79.97
58662;BME280;44432;49.786;22.760;2023-02-28T01:41:34;100669.48;;;-4.16;80.05
58662;BME280;44432;49.786;22.760;2023-02-28T01:44:53;100669.30;;;-4.19;80.11
58662;BME280;44432;49.786;22.760;2023-02-28T01:46:57;100670.64;;;-4.22;80.20
58662;BME280;44432;49.786;22.760;2023-02-28T01:49:28;100670.34;;;-4.22;80.29
58662;BME280;44432;49.786;22.760;2023-02-28T01:51:59;100671.86;;;-4.22;80.36
58662;BME280;44432;49.786;22.760;2023-02-28T01:54:32;100670.97;;;-4.21;80.51
58662;BME280;44432;49.786;22.760;2023-02-28T01:57:05;100668.20;;;-4.21;80.49
58662;BME280;44432;49.786;22.760;2023-02-28T01:59:40;100669.05;;;-4.21;80.50
58662;BME280;44432;49.786;22.760;2023-02-28T02:02:16;100668.93;;;-4.22;80.20
58662;BME280;44432;49.786;22.760;2023-02-28T02:04:53;100666.46;;;-4.24;80.36
58662;BME280;44432;49.786;22.760;2023-02-28T02:07:26;100660.19;;;-4.28;80.26
58662;BME280;44432;49.786;22.760;2023-02-28T02:10:04;100661.47;;;-4.30;80.36
58662;BME280;44432;49.786;22.760;2023-02-28T02:12:46;100656.88;;;-4.31;80.48
58662;BME280;44432;49.786;22.760;2023-02-28T02:15:26;100657.73;;;-4.31;80.48
58662;BME280;44432;49.786;22.760;2023-02-28T02:18:04;100662.23;;;-4.32;80.61
58662;BME280;44432;49.786;22.760;2023-02-28T02:21:06;100660.21;;;-4.32;80.56
58662;BME280;44432;49.786;22.760;2023-02-28T02:24:07;100657.39;;;-4.34;80.63
58662;BME280;44432;49.786;22.760;2023-02-28T02:27:07;100651.79;;;-4.35;80.64
58662;BME280;44432;49.786;22.760;2023-02-28T02:29:49;100648.09;;;-4.37;80.69
58662;BME280;44432;49.786;22.760;2023-02-28T02:32:46;100649.23;;;-4.39;80.84
58662;BME280;44432;49.786;22.760;2023-02-28T02:35:26;100647.30;;;-4.41;80.81
58662;BME280;44432;49.786;22.760;2023-02-28T02:38:05;100646.69;;;-4.42;80.81
58662;BME280;44432;49.786;22.760;2023-02-28T02:40:41;100642.67;;;-4.44;80.82
58662;BME280;44432;49.786;22.760;2023-02-28T02:43:17;100642.30;;;-4.47;80.85
58662;BME280;44432;49.786;22.760;2023-02-28T02:45:53;100643.23;;;-4.48;80.96
58662;BME280;44432;49.786;22.760;2023-02-28T02:48:28;100643.81;;;-4.49;80.85
58662;BME280;44432;49.786;22.760;2023-02-28T02:51:03;100643.19;;;-4.51;80.92
58662;BME280;44432;49.786;22.760;2023-02-28T02:53:40;100638.33;;;-4.53;81.02
58662;BME280;44432;49.786;22.760;2023-02-28T02:56:12;100638.09;;;-4.55;80.90
58662;BME280;44432;49.786;22.760;2023-02-28T02:58:45;100640.27;;;-4.57;81.03
58662;BME280;44432;49.786;22.760;2023-02-28T03:01:24;100636.75;;;-4.58;81.04
58662;BME280;44432;49.786;22.760;2023-02-28T03:04:00;100637.98;;;-4.59;81.05
58662;BME280;44432;49.786;22.760;2023-02-28T03:06:33;100638.94;;;-4.61;80.99
58662;BME280;44432;49.786;22.760;2023-02-28T03:09:04;100641.17;;;-4.64;81.05
58662;BME280;44432;49.786;22.760;2023-02-28T03:11:37;100646.90;;;-4.68;80.88
58662;BME280;44432;49.786;22.760;2023-02-28T03:14:26;100648.92;;;-4.71;81.09
58662;BME280;44432;49.786;22.760;2023-02-28T03:17:16;100652.76;;;-4.72;81.26
58662;BME280;44432;49.786;22.760;2023-02-28T03:19:54;100653.33;;;-4.76;81.03
58662;BME280;44432;49.786;22.760;2023-02-28T03:22:40;100654.48;;;-4.78;81.04
58662;BME280;44432;49.786;22.760;2023-02-28T03:25:18;100659.99;;;-4.82;80.99
58662;BME280;44432;49.786;22.760;2023-02-28T03:28:00;100659.89;;;-4.90;80.90
58662;BME280;44432;49.786;22.760;2023-02-28T03:30:38;100663.44;;;-4.92;81.01
58662;BME280;44432;49.786;22.760;2023-02-28T03:33:14;100662.38;;;-4.95;81.02
58662;BME280;44432;49.786;22.760;2023-02-28T03:35:49;100665.67;;;-4.96;81.26
58662;BME280;44432;49.786;22.760;2023-02-28T03:38:27;100667.24;;;-4.96;81.26
58662;BME280;44432;49.786;22.760;2023-02-28T03:41:05;100664.30;;;-4.99;81.36
58662;BME280;44432;49.786;22.760;2023-02-28T03:43:40;100664.09;;;-4.98;81.34
58662;BME280;44432;49.786;22.760;2023-02-28T03:46:16;100662.45;;;-5.03;81.01
58662;BME280;44432;49.786;22.760;2023-02-28T03:48:55;100664.01;;;-5.06;81.22
58662;BME280;44432;49.786;22.760;2023-02-28T03:51:29;100663.38;;;-5.07;81.33
58662;BME280;44432;49.786;22.760;2023-02-28T03:54:04;100666.59;;;-5.06;81.60
58662;BME280;44432;49.786;22.760;2023-02-28T03:56:40;100670.98;;;-5.05;81.65
58662;BME280;44432;49.786;22.760;2023-02-28T03:59:16;100668.20;;;-5.04;81.87
58662;BME280;44432;49.786;22.760;2023-02-28T04:01:51;100657.16;;;-5.10;81.42
58662;BME280;44432;49.786;22.760;2023-02-28T04:04:22;100664.41;;;-5.04;81.76
58662;BME280;44432;49.786;22.760;2023-02-28T04:06:53;100664.29;;;-5.05;81.61
58662;BME280;44432;49.786;22.760;2023-02-28T04:09:31;100668.10;;;-5.06;81.56
58662;BME280;44432;49.786;22.760;2023-02-28T04:12:02;100672.98;;;-5.07;81.53
58662;BME280;44432;49.786;22.760;2023-02-28T04:14:32;100677.35;;;-5.09;81.81
58662;BME280;44432;49.786;22.760;2023-02-28T04:17:03;100679.65;;;-5.10;81.69
58662;BME280;44432;49.786;22.760;2023-02-28T04:19:34;100678.91;;;-5.12;81.88
58662;BME280;44432;49.786;22.760;2023-02-28T04:22:05;100679.67;;;-5.14;81.88
58662;BME280;44432;49.786;22.760;2023-02-28T04:24:35;100678.13;;;-5.14;81.69
58662;BME280;44432;49.786;22.760;2023-02-28T04:27:06;100679.85;;;-5.14;81.88
58662;BME280;44432;49.786;22.760;2023-02-28T04:29:38;100672.16;;;-5.14;81.83
58662;BME280;44432;49.786;22.760;2023-02-28T04:32:09;100670.98;;;-5.18;81.71
58662;BME280;44432;49.786;22.760;2023-02-28T04:34:40;100673.29;;;-5.16;81.80
58662;BME280;44432;49.786;22.760;2023-02-28T04:37:11;100674.00;;;-5.17;81.82
58662;BME280;44432;49.786;22.760;2023-02-28T04:39:42;100674.19;;;-5.17;81.87
58662;BME280;44432;49.786;22.760;2023-02-28T04:42:13;100677.17;;;-5.18;81.83
58662;BME280;44432;49.786;22.760;2023-02-28T04:44:43;100684.57;;;-5.19;81.80
58662;BME280;44432;49.786;22.760;2023-02-28T04:47:14;100685.73;;;-5.18;81.87
58662;BME280;44432;49.786;22.760;2023-02-28T04:49:45;100685.09;;;-5.19;81.89
58662;BME280;44432;49.786;22.760;2023-02-28T04:52:15;100687.44;;;-5.20;81.81
58662;BME280;44432;49.786;22.760;2023-02-28T04:54:46;100683.86;;;-5.21;82.05
58662;BME280;44432;49.786;22.760;2023-02-28T04:57:16;100683.68;;;-5.21;82.27
58662;BME280;44432;49.786;22.760;2023-02-28T04:59:47;100685.09;;;-5.22;82.05
58662;BME280;44432;49.786;22.760;2023-02-28T05:02:19;100684.52;;;-5.20;82.06
58662;BME280;44432;49.786;22.760;2023-02-28T05:04:50;100681.48;;;-5.19;82.33
58662;BME280;44432;49.786;22.760;2023-02-28T05:07:21;100690.36;;;-5.18;82.33
58662;BME280;44432;49.786;22.760;2023-02-28T05:09:51;100692.14;;;-5.16;82.33
58662;BME280;44432;49.786;22.760;2023-02-28T05:12:22;100695.14;;;-5.14;82.38
58662;BME280;44432;49.786;22.760;2023-02-28T05:14:53;100692.40;;;-5.11;82.55
58662;BME280;44432;49.786;22.760;2023-02-28T05:17:24;100691.97;;;-5.06;82.54
58662;BME280;44432;49.786;22.760;2023-02-28T05:19:54;100691.07;;;-5.02;82.72
58662;BME280;44432;49.786;22.760;2023-02-28T05:22:25;100688.97;;;-4.98;82.53
58662;BME280;44432;49.786;22.760;2023-02-28T05:24:56;100686.71;;;-4.94;82.46
58662;BME280;44432;49.786;22.760;2023-02-28T05:27:27;100688.19;;;-4.92;82.39
58662;BME280;44432;49.786;22.760;2023-02-28T05:29:58;100691.29;;;-4.89;82.36
58662;BME280;44432;49.786;22.760;2023-02-28T05:32:33;100693.23;;;-4.87;82.41
58662;BME280;44432;49.786;22.760;2023-02-28T05:35:05;100698.59;;;-4.84;82.45
58662;BME280;44432;49.786;22.760;2023-02-28T05:37:35;100702.02;;;-4.81;82.56
58662;BME280;44432;49.786;22.760;2023-02-28T05:40:08;100699.41;;;-4.77;82.32
58662;BME280;44432;49.786;22.760;2023-02-28T05:42:40;100700.41;;;-4.74;82.37
58662;BME280;44432;49.786;22.760;2023-02-28T05:45:12;100708.71;;;-4.68;82.43
58662;BME280;44432;49.786;22.760;2023-02-28T05:47:42;100711.00;;;-4.63;82.46
58662;BME280;44432;49.786;22.760;2023-02-28T05:50:13;100713.41;;;-4.56;82.48
58662;BME280;44432;49.786;22.760;2023-02-28T05:52:44;100716.31;;;-4.49;82.67
58662;BME280;44432;49.786;22.760;2023-02-28T05:55:15;100712.52;;;-4.43;82.47
58662;BME280;44432;49.786;22.760;2023-02-28T05:57:45;100711.71;;;-4.37;82.38
58662;BME280;44432;49.786;22.760;2023-02-28T06:00:17;100715.16;;;-4.34;82.20
58662;BME280;44432;49.786;22.760;2023-02-28T06:02:48;100720.65;;;-4.31;82.07
58662;BME280;44432;49.786;22.760;2023-02-28T06:05:19;100727.86;;;-4.28;82.04
58662;BME280;44432;49.786;22.760;2023-02-28T06:07:49;100730.15;;;-4.25;82.05
58662;BME280;44432;49.786;22.760;2023-02-28T06:10:20;100739.45;;;-4.22;81.94
58662;BME280;44432;49.786;22.760;2023-02-28T06:12:51;100742.20;;;-4.19;81.91
58662;BME280;44432;49.786;22.760;2023-02-28T06:15:21;100746.51;;;-4.14;82.04
58662;BME280;44432;49.786;22.760;2023-02-28T06:17:52;100751.10;;;-4.07;82.04
58662;BME280;44432;49.786;22.760;2023-02-28T06:20:24;100751.80;;;-4.01;82.18
58662;BME280;44432;49.786;22.760;2023-02-28T06:22:55;100752.92;;;-3.93;81.95
58662;BME280;44432;49.786;22.760;2023-02-28T06:25:28;100758.56;;;-3.86;82.02
58662;BME280;44432;49.786;22.760;2023-02-28T06:27:59;100753.92;;;-3.80;81.82
58662;BME280;44432;49.786;22.760;2023-02-28T06:30:30;100759.14;;;-3.72;82.05
58662;BME280;44432;49.786;22.760;2023-02-28T06:33:00;100766.52;;;-3.62;81.94
58662;BME280;44432;49.786;22.760;2023-02-28T06:35:31;100767.36;;;-3.52;81.75
58662;BME280;44432;49.786;22.760;2023-02-28T06:38:01;100770.27;;;-3.43;81.68
58662;BME280;44432;49.786;22.760;2023-02-28T06:40:33;100767.42;;;-3.32;81.75
58662;BME280;44432;49.786;22.760;2023-02-28T06:43:05;100766.09;;;-3.21;81.73
58662;BME280;44432;49.786;22.760;2023-02-28T06:45:36;100757.41;;;-3.12;81.60
58662;BME280;44432;49.786;22.760;2023-02-28T06:48:07;100764.66;;;-2.97;81.56
58662;BME280;44432;49.786;22.760;2023-02-28T06:50:38;100757.92;;;-2.85;81.54
58662;BME280;44432;49.786;22.760;2023-02-28T06:53:08;100759.73;;;-2.72;81.59
58662;BME280;44432;49.786;22.760;2023-02-28T06:55:40;100759.34;;;-2.60;81.39
58662;BME280;44432;49.786;22.760;2023-02-28T06:58:11;100755.19;;;-2.48;81.26
58662;BME280;44432;49.786;22.760;2023-02-28T07:00:45;100758.46;;;-2.37;81.32
58662;BME280;44432;49.786;22.760;2023-02-28T07:03:16;100759.77;;;-2.27;80.75
58662;BME280;44432;49.786;22.760;2023-02-28T07:05:47;100762.39;;;-2.22;80.66
58662;BME280;44432;49.786;22.760;2023-02-28T07:08:18;100761.80;;;-2.13;80.59
58662;BME280;44432;49.786;22.760;2023-02-28T07:10:48;100761.77;;;-2.02;80.56
58662;BME280;44432;49.786;22.760;2023-02-28T07:13:22;100756.88;;;-1.93;80.36
58662;BME280;44432;49.786;22.760;2023-02-28T07:15:57;100755.77;;;-1.83;80.16
58662;BME280;44432;49.786;22.760;2023-02-28T07:18:28;100755.82;;;-1.76;79.59
58662;BME280;44432;49.786;22.760;2023-02-28T07:21:00;100757.27;;;-1.69;79.50
58662;BME280;44432;49.786;22.760;2023-02-28T07:23:31;100756.05;;;-1.60;79.33
58662;BME280;44432;49.786;22.760;2023-02-28T07:26:02;100753.27;;;-1.55;78.79
58662;BME280;44432;49.786;22.760;2023-02-28T07:28:33;100761.24;;;-1.48;78.56
58662;BME280;44432;49.786;22.760;2023-02-28T07:31:08;100764.02;;;-1.43;78.51
58662;BME280;44432;49.786;22.760;2023-02-28T07:33:39;100763.02;;;-1.35;78.36
58662;BME280;44432;49.786;22.760;2023-02-28T07:36:11;100765.56;;;-1.29;78.30
58662;BME280;44432;49.786;22.760;2023-02-28T07:38:45;100764.67;;;-1.18;78.06
58662;BME280;44432;49.786;22.760;2023-02-28T07:41:18;100766.58;;;-1.08;78.08
58662;BME280;44432;49.786;22.760;2023-02-28T07:43:49;100763.88;;;-0.99;77.56
58662;BME280;44432;49.786;22.760;2023-02-28T07:46:20;100763.25;;;-0.92;77.47
58662;BME280;44432;49.786;22.760;2023-02-28T07:48:50;100763.75;;;-0.87;77.02
58662;BME280;44432;49.786;22.760;2023-02-28T07:51:23;100766.88;;;-0.87;76.44
58662;BME280;44432;49.786;22.760;2023-02-28T07:53:54;100763.77;;;-0.85;76.54
58662;BME280;44432;49.786;22.760;2023-02-28T07:56:35;100763.23;;;-0.77;76.65
58662;BME280;44432;49.786;22.760;2023-02-28T07:59:06;100767.52;;;-0.66;76.54
58662;BME280;44432;49.786;22.760;2023-02-28T08:01:37;100766.74;;;-0.55;76.54
58662;BME280;44432;49.786;22.760;2023-02-28T08:04:08;100764.59;;;-0.44;76.28
58662;BME280;44432;49.786;22.760;2023-02-28T08:06:38;100770.08;;;-0.36;75.79
58662;BME280;44432;49.786;22.760;2023-02-28T08:09:09;100770.79;;;-0.41;74.62
58662;BME280;44432;49.786;22.760;2023-02-28T08:11:41;100770.03;;;-0.45;74.93
58662;BME280;44432;49.786;22.760;2023-02-28T08:14:11;100777.20;;;-0.39;74.90
58662;BME280;44432;49.786;22.760;2023-02-28T08:16:43;100773.55;;;-0.36;74.52
58662;BME280;44432;49.786;22.760;2023-02-28T08:19:13;100778.22;;;-0.33;74.61
58662;BME280;44432;49.786;22.760;2023-02-28T08:21:44;100781.35;;;-0.30;74.77
58662;BME280;44432;49.786;22.760;2023-02-28T08:24:15;100784.55;;;-0.27;74.58
58662;BME280;44432;49.786;22.760;2023-02-28T08:26:46;100789.23;;;-0.27;74.47
58662;BME280;44432;49.786;22.760;2023-02-28T08:29:16;100786.77;;;-0.31;73.81
58662;BME280;44432;49.786;22.760;2023-02-28T08:31:47;100784.39;;;-0.40;73.61
58662;BME280;44432;49.786;22.760;2023-02-28T08:34:18;100789.00;;;-0.41;73.39
58662;BME280;44432;49.786;22.760;2023-02-28T08:36:48;100783.64;;;-0.37;73.72
58662;BME280;44432;49.786;22.760;2023-02-28T08:39:19;100780.52;;;-0.24;73.97
58662;BME280;44432;49.786;22.760;2023-02-28T08:41:50;100785.02;;;-0.09;73.83
58662;BME280;44432;49.786;22.760;2023-02-28T08:44:20;100785.27;;;-0.01;73.05
58662;BME280;44432;49.786;22.760;2023-02-28T08:46:51;100785.38;;;0.03;72.61
58662;BME280;44432;49.786;22.760;2023-02-28T08:49:22;100783.73;;;0.09;72.82
58662;BME280;44432;49.786;22.760;2023-02-28T08:51:52;100783.72;;;0.23;72.88
58662;BME280;44432;49.786;22.760;2023-02-28T08:54:24;100782.38;;;0.37;72.44
58662;BME280;44432;49.786;22.760;2023-02-28T08:56:55;100781.08;;;0.46;71.99
58662;BME280;44432;49.786;22.760;2023-02-28T08:59:26;100777.47;;;0.52;71.38
58662;BME280;44432;49.786;22.760;2023-02-28T09:01:56;100775.02;;;0.57;70.99
58662;BME280;44432;49.786;22.760;2023-02-28T09:04:27;100768.05;;;0.58;70.42
58662;BME280;44432;49.786;22.760;2023-02-28T09:06:59;100771.89;;;0.62;70.18
58662;BME280;44432;49.786;22.760;2023-02-28T09:09:30;100776.64;;;0.63;69.93
58662;BME280;44432;49.786;22.760;2023-02-28T09:12:01;100771.54;;;0.62;69.59
58662;BME280;44432;49.786;22.760;2023-02-28T09:14:32;100767.17;;;0.63;69.26
58662;BME280;44432;49.786;22.760;2023-02-28T09:17:03;100764.00;;;0.66;69.18
58662;BME280;44432;49.786;22.760;2023-02-28T09:19:33;100763.90;;;0.67;68.85
58662;BME280;44432;49.786;22.760;2023-02-28T09:22:04;100762.17;;;0.65;68.81
58662;BME280;44432;49.786;22.760;2023-02-28T09:24:35;100769.17;;;0.69;68.50
58662;BME280;44432;49.786;22.760;2023-02-28T09:27:06;100766.41;;;0.74;68.56
58662;BME280;44432;49.786;22.760;2023-02-28T09:29:37;100767.20;;;0.79;68.48
58662;BME280;44432;49.786;22.760;2023-02-28T09:32:07;100764.92;;;0.82;68.10
58662;BME280;44432;49.786;22.760;2023-02-28T09:34:38;100760.91;;;0.84;67.93
58662;BME280;44432;49.786;22.760;2023-02-28T09:37:09;100757.36;;;0.92;67.76
58662;BME280;44432;49.786;22.760;2023-02-28T09:39:40;100754.20;;;1.04;68.12
58662;BME280;44432;49.786;22.760;2023-02-28T09:42:21;100758.38;;;1.20;67.70
58662;BME280;44432;49.786;22.760;2023-02-28T09:44:52;100761.76;;;1.32;67.47
58662;BME280;44432;49.786;22.760;2023-02-28T09:47:32;100761.36;;;1.40;66.94
58662;BME280;44432;49.786;22.760;2023-02-28T09:50:16;100763.19;;;1.50;66.58
58662;BME280;44432;49.786;22.760;2023-02-28T09:52:50;100766.84;;;1.57;65.98
58662;BME280;44432;49.786;22.760;2023-02-28T09:55:25;100761.80;;;1.57;65.45
58662;BME280;44432;49.786;22.760;2023-02-28T09:57:59;100761.40;;;1.59;65.71
58662;BME280;44432;49.786;22.760;2023-02-28T10:00:34;100765.89;;;1.67;65.60
58662;BME280;44432;49.786;22.760;2023-02-28T10:03:17;100767.69;;;1.68;64.69
58662;BME280;44432;49.786;22.760;2023-02-28T10:05:54;100762.02;;;1.70;64.82
58662;BME280;44432;49.786;22.760;2023-02-28T10:08:31;100758.89;;;1.79;64.88
58662;BME280;44432;49.786;22.760;2023-02-28T10:11:09;100756.92;;;1.92;65.01
58662;BME280;44432;49.786;22.760;2023-02-28T10:13:50;100758.78;;;2.02;64.35
58662;BME280;44432;49.786;22.760;2023-02-28T10:16:27;100759.21;;;2.07;64.07
58662;BME280;44432;49.786;22.760;2023-02-28T10:19:03;100753.28;;;2.13;64.08
58662;BME280;44432;49.786;22.760;2023-02-28T10:21:38;100753.19;;;2.21;63.92
58662;BME280;44432;49.786;22.760;2023-02-28T10:24:21;100749.48;;;2.30;63.84
58662;BME280;44432;49.786;22.760;2023-02-28T10:26:56;100748.27;;;2.33;63.05
58662;BME280;44432;49.786;22.760;2023-02-28T10:29:30;100747.77;;;2.33;63.01
58662;BME280;44432;49.786;22.760;2023-02-28T10:32:01;100749.31;;;2.26;62.11
58662;BME280;44432;49.786;22.760;2023-02-28T10:34:32;100748.77;;;2.14;61.96
58662;BME280;44432;49.786;22.760;2023-02-28T10:37:04;100741.54;;;2.02;61.80
58662;BME280;44432;49.786;22.760;2023-02-28T10:39:39;100737.88;;;1.85;61.50
58662;BME280;44432;49.786;22.760;2023-02-28T10:42:25;100738.62;;;1.82;61.85
58662;BME280;44432;49.786;22.760;2023-02-28T10:45:13;100733.39;;;1.78;62.00
58662;BME280;44432;49.786;22.760;2023-02-28T10:47:53;100732.27;;;1.86;62.36
58662;BME280;44432;49.786;22.760;2023-02-28T10:50:36;100732.42;;;2.01;62.41
58662;BME280;44432;49.786;22.760;2023-02-28T10:53:24;100722.58;;;2.13;62.12
58662;BME280;44432;49.786;22.760;2023-02-28T10:56:00;100716.55;;;2.19;61.67
58662;BME280;44432;49.786;22.760;2023-02-28T10:58:44;100717.98;;;2.31;61.89
58662;BME280;44432;49.786;22.760;2023-02-28T11:01:19;100716.63;;;2.48;61.73
58662;BME280;44432;49.786;22.760;2023-02-28T11:03:49;100715.02;;;2.59;61.39
58662;BME280;44432;49.786;22.760;2023-02-28T11:06:21;100711.37;;;2.70;61.27
58662;BME280;44432;49.786;22.760;2023-02-28T11:08:56;100710.81;;;2.80;61.23
58662;BME280;44432;49.786;22.760;2023-02-28T11:11:31;100706.43;;;2.91;60.95
58662;BME280;44432;49.786;22.760;2023-02-28T11:14:21;100706.76;;;3.00;60.87
58662;BME280;44432;49.786;22.760;2023-02-28T11:16:53;100702.11;;;3.11;61.10
58662;BME280;44432;49.786;22.760;2023-02-28T11:19:27;100700.97;;;3.24;60.60
58662;BME280;44432;49.786;22.760;2023-02-28T11:22:01;100697.63;;;3.31;59.89
58662;BME280;44432;49.786;22.760;2023-02-28T11:24:35;100693.19;;;3.32;59.55
58662;BME280;44432;49.786;22.760;2023-02-28T11:27:11;100690.27;;;3.34;59.49
58662;BME280;44432;49.786;22.760;2023-02-28T11:29:54;100685.47;;;3.28;59.00
58662;BME280;44432;49.786;22.760;2023-02-28T11:32:26;100688.65;;;3.26;59.11
58662;BME280;44432;49.786;22.760;2023-02-28T11:35:10;100689.90;;;3.30;59.12
58662;BME280;44432;49.786;22.760;2023-02-28T11:37:44;100691.23;;;3.39;59.55
58662;BME280;44432;49.786;22.760;2023-02-28T11:40:17;100687.17;;;3.49;59.29
58662;BME280;44432;49.786;22.760;2023-02-28T11:42:59;100686.35;;;3.58;59.24
58662;BME280;44432;49.786;22.760;2023-02-28T11:45:45;100685.38;;;3.64;58.67
58662;BME280;44432;49.786;22.760;2023-02-28T11:48:25;100688.05;;;3.69;58.91
58662;BME280;44432;49.786;22.760;2023-02-28T11:51:08;100689.04;;;3.76;58.72
58662;BME280;44432;49.786;22.760;2023-02-28T11:54:06;100686.66;;;3.83;58.63
58662;BME280;44432;49.786;22.760;2023-02-28T11:56:47;100685.09;;;3.87;58.77
58662;BME280;44432;49.786;22.760;2023-02-28T11:59:32;100680.48;;;3.91;58.56
58662;BME280;44432;49.786;22.760;2023-02-28T12:02:20;100678.73;;;4.00;58.47
58662;BME280;44432;49.786;22.760;2023-02-28T12:05:01;100682.32;;;4.03;58.37
58662;BME280;44432;49.786;22.760;2023-02-28T12:07:43;100676.77;;;4.00;58.26
58662;BME280;44432;49.786;22.760;2023-02-28T12:10:22;100678.64;;;4.07;58.47
58662;BME280;44432;49.786;22.760;2023-02-28T12:13:11;100679.88;;;4.06;58.18
58662;BME280;44432;49.786;22.760;2023-02-28T12:19:05;100675.91;;;4.00;57.92
58662;BME280;44432;49.786;22.760;2023-02-28T12:21:51;100671.02;;;4.01;58.14
58662;BME280;44432;49.786;22.760;2023-02-28T12:24:44;100671.84;;;4.03;57.94
58662;BME280;44432;49.786;22.760;2023-02-28T12:27:21;100672.84;;;4.07;57.95
58662;BME280;44432;49.786;22.760;2023-02-28T12:29:55;100673.19;;;4.11;57.90
58662;BME280;44432;49.786;22.760;2023-02-28T12:32:32;100667.96;;;4.09;57.79
58662;BME280;44432;49.786;22.760;2023-02-28T12:35:10;100666.98;;;4.14;58.01
58662;BME280;44432;49.786;22.760;2023-02-28T12:37:47;100664.10;;;4.19;57.96
58662;BME280;44432;49.786;22.760;2023-02-28T12:40:22;100668.05;;;4.23;57.86
58662;BME280;44432;49.786;22.760;2023-02-28T12:42:56;100664.83;;;4.20;57.50
58662;BME280;44432;49.786;22.760;2023-02-28T12:45:36;100661.38;;;4.18;57.43
58662;BME280;44432;49.786;22.760;2023-02-28T12:48:14;100658.50;;;4.10;57.20
58662;BME280;44432;49.786;22.760;2023-02-28T12:50:45;100656.85;;;4.01;57.29
58662;BME280;44432;49.786;22.760;2023-02-28T12:53:25;100655.33;;;3.98;57.72
58662;BME280;44432;49.786;22.760;2023-02-28T12:56:09;100655.08;;;3.96;57.35
58662;BME280;44432;49.786;22.760;2023-02-28T12:58:50;100651.73;;;3.72;56.51
58662;BME280;44432;49.786;22.760;2023-02-28T13:01:34;100654.34;;;3.56;57.48
58662;BME280;44432;49.786;22.760;2023-02-28T13:07:17;100652.36;;;3.61;58.35
58662;BME280;44432;49.786;22.760;2023-02-28T13:09:55;100649.89;;;3.68;58.19
58662;BME280;44432;49.786;22.760;2023-02-28T13:12:27;100643.86;;;3.71;57.95
58662;BME280;44432;49.786;22.760;2023-02-28T13:15:07;100645.20;;;3.73;58.35
58662;BME280;44432;49.786;22.760;2023-02-28T13:17:41;100642.77;;;3.77;57.91
58662;BME280;44432;49.786;22.760;2023-02-28T13:20:20;100642.98;;;3.71;57.83
58662;BME280;44432;49.786;22.760;2023-02-28T13:22:53;100639.41;;;3.66;57.77
58662;BME280;44432;49.786;22.760;2023-02-28T13:25:51;100636.36;;;3.59;57.83